createdAt,value
2022-07-31T00:00:31.223Z,25.53
2022-07-31T00:02:58.818Z,24.37
2022-07-31T00:05:25.527Z,25.13
2022-07-31T00:07:53.979Z,19.20
2022-07-31T00:10:20.497Z,23.30
2022-07-31T00:12:47.048Z,13.93
2022-07-31T00:15:13.778Z,16.70
2022-07-31T00:17:40.862Z,17.40
2022-07-31T00:20:08.443Z,22.20
2022-07-31T00:22:35.642Z,17.83
2022-07-31T00:25:02.750Z,18.90
2022-07-31T00:27:29.362Z,18.50
2022-07-31T00:29:55.952Z,15.67
2022-07-31T00:32:22.413Z,14.77
2022-07-31T00:34:48.901Z,14.67
2022-07-31T00:37:15.521Z,18.63
2022-07-31T00:39:42.458Z,20.93
2022-07-31T00:42:19.317Z,22.97
2022-07-31T00:44:47.766Z,20.53
2022-07-31T00:47:14.688Z,22.83
2022-07-31T00:49:41.960Z,21.33
2022-07-31T00:52:08.440Z,25.00
2022-07-31T00:54:35.556Z,22.97
2022-07-31T00:57:03.158Z,24.23
2022-07-31T00:59:30.242Z,18.97
2022-07-31T01:01:57.697Z,18.93
2022-07-31T01:04:26.277Z,22.80
2022-07-31T01:06:53.969Z,24.37
2022-07-31T01:09:20.531Z,18.93
2022-07-31T01:12:19.300Z,17.97
2022-07-31T01:14:55.044Z,18.57
2022-07-31T01:17:23.151Z,21.80
2022-07-31T01:19:50.766Z,27.43
2022-07-31T01:22:34.099Z,30.30
2022-07-31T01:25:07.333Z,34.90
2022-07-31T01:27:52.777Z,32.70
2022-07-31T01:30:20.539Z,29.37
2022-07-31T01:32:48.514Z,23.40
2022-07-31T01:35:18.247Z,25.37
2022-07-31T01:37:53.834Z,23.50
2022-07-31T01:40:27.887Z,18.97
2022-07-31T01:43:00.981Z,20.60
2022-07-31T01:45:28.972Z,18.63
2022-07-31T01:47:55.856Z,17.63
2022-07-31T01:50:43.284Z,19.37
2022-07-31T01:53:10.730Z,18.57
2022-07-31T01:56:02.606Z,21.10
2022-07-31T01:58:26.908Z,19.33
2022-07-31T02:00:55.747Z,23.03
2022-07-31T02:03:42.805Z,31.70
2022-07-31T02:06:13.460Z,22.47
2022-07-31T02:08:40.104Z,28.57
2022-07-31T02:11:07.401Z,28.33
2022-07-31T02:13:35.955Z,22.13
2022-07-31T02:16:04.940Z,16.67
2022-07-31T02:18:33.066Z,18.57
2022-07-31T02:20:59.828Z,17.80
2022-07-31T02:23:26.367Z,22.47
2022-07-31T02:25:53.146Z,15.80
2022-07-31T02:28:20.579Z,13.57
2022-07-31T02:30:47.792Z,14.97
2022-07-31T02:33:18.459Z,13.27
2022-07-31T02:35:45.855Z,11.57
2022-07-31T02:38:21.698Z,11.10
2022-07-31T02:40:51.562Z,12.40
2022-07-31T02:43:18.765Z,10.83
2022-07-31T02:45:45.713Z,12.53
2022-07-31T02:48:12.685Z,11.57
2022-07-31T02:50:39.961Z,13.27
2022-07-31T02:53:06.797Z,13.97
2022-07-31T02:55:33.779Z,11.87
2022-07-31T02:58:01.977Z,16.27
2022-07-31T03:00:28.994Z,10.53
2022-07-31T03:02:55.996Z,10.37
2022-07-31T03:05:22.744Z,12.70
2022-07-31T03:07:49.396Z,10.07
2022-07-31T03:10:16.063Z,13.03
2022-07-31T03:12:46.671Z,10.97
2022-07-31T03:15:18.000Z,12.73
2022-07-31T03:17:45.586Z,11.40
2022-07-31T03:20:14.321Z,12.63
2022-07-31T03:22:41.860Z,12.30
2022-07-31T03:25:08.632Z,16.33
2022-07-31T03:27:35.258Z,14.63
2022-07-31T03:30:02.894Z,15.20
2022-07-31T03:32:30.620Z,13.47
2022-07-31T03:34:57.241Z,11.63
2022-07-31T03:37:23.914Z,11.80
2022-07-31T03:39:50.431Z,13.87
2022-07-31T03:42:19.134Z,13.87
2022-07-31T03:44:46.610Z,11.93
2022-07-31T03:47:13.411Z,13.20
2022-07-31T03:49:43.895Z,14.10
2022-07-31T03:52:12.531Z,10.97
2022-07-31T03:54:40.169Z,18.87
2022-07-31T03:57:08.478Z,16.97
2022-07-31T03:59:39.837Z,19.13
2022-07-31T04:02:14.791Z,13.13
2022-07-31T04:04:45.411Z,14.07
2022-07-31T04:07:11.961Z,14.80
2022-07-31T04:09:38.738Z,14.93
2022-07-31T04:12:06.156Z,15.57
2022-07-31T04:14:32.966Z,18.00
2022-07-31T04:16:59.443Z,16.77
2022-07-31T04:19:26.138Z,11.10
2022-07-31T04:21:52.679Z,15.17
2022-07-31T04:24:21.030Z,14.50
2022-07-31T04:26:49.440Z,13.30
2022-07-31T04:29:16.238Z,13.20
2022-07-31T04:31:42.860Z,13.70
2022-07-31T04:34:09.891Z,12.40
2022-07-31T04:36:36.458Z,13.23
2022-07-31T04:39:03.902Z,11.47
2022-07-31T04:41:30.873Z,12.17
2022-07-31T04:44:00.505Z,11.77
2022-07-31T04:46:26.983Z,9.27
2022-07-31T04:48:53.689Z,10.10
2022-07-31T04:51:21.274Z,10.87
2022-07-31T04:53:50.097Z,9.53
2022-07-31T04:56:37.651Z,10.03
2022-07-31T04:59:08.783Z,8.30
2022-07-31T05:01:35.976Z,11.47
2022-07-31T05:04:04.181Z,9.27
2022-07-31T05:06:35.709Z,7.03
2022-07-31T05:09:08.433Z,7.17
2022-07-31T05:11:36.950Z,10.37
2022-07-31T05:14:07.041Z,8.53
2022-07-31T05:16:34.280Z,5.63
2022-07-31T05:19:01.554Z,6.93
2022-07-31T05:21:30.540Z,6.10
2022-07-31T05:23:58.340Z,7.07
2022-07-31T05:26:25.241Z,5.00
2022-07-31T05:28:58.096Z,4.83
2022-07-31T05:31:25.494Z,9.37
2022-07-31T05:33:52.453Z,4.90
2022-07-31T05:36:19.694Z,5.27
2022-07-31T05:38:46.499Z,4.07
2022-07-31T05:41:13.602Z,4.27
2022-07-31T05:43:40.450Z,3.27
2022-07-31T05:46:07.307Z,3.33
2022-07-31T05:48:33.994Z,3.07
2022-07-31T05:51:05.035Z,7.87
2022-07-31T05:53:32.208Z,3.93
2022-07-31T05:55:58.930Z,4.00
2022-07-31T05:58:25.452Z,4.07
2022-07-31T06:00:52.064Z,3.23
2022-07-31T06:03:23.910Z,3.77
2022-07-31T06:05:51.285Z,4.70
2022-07-31T06:08:18.188Z,4.33
2022-07-31T06:10:45.176Z,4.20
2022-07-31T06:13:11.990Z,3.37
2022-07-31T06:15:38.589Z,4.70
2022-07-31T06:18:09.137Z,3.27
2022-07-31T06:20:37.177Z,3.20
2022-07-31T06:23:19.928Z,3.27
2022-07-31T06:25:52.711Z,3.27
2022-07-31T06:28:19.212Z,4.57
2022-07-31T06:30:48.381Z,3.07
2022-07-31T06:33:15.880Z,3.17
2022-07-31T06:35:44.190Z,4.93
2022-07-31T06:38:10.670Z,3.87
2022-07-31T06:40:37.381Z,4.07
2022-07-31T06:43:07.027Z,6.20
2022-07-31T06:45:51.579Z,7.13
2022-07-31T06:48:19.134Z,2.70
2022-07-31T06:50:45.702Z,3.63
2022-07-31T06:53:12.187Z,3.27
2022-07-31T06:55:44.269Z,3.37
2022-07-31T06:58:11.446Z,2.47
2022-07-31T07:00:38.461Z,2.37
2022-07-31T07:03:05.330Z,2.93
2022-07-31T07:05:31.780Z,4.20
2022-07-31T07:07:58.261Z,4.43
2022-07-31T07:10:25.176Z,3.77
2022-07-31T07:12:51.676Z,3.20
2022-07-31T07:15:20.555Z,2.97
2022-07-31T07:17:47.183Z,3.37
2022-07-31T07:20:13.848Z,3.33
2022-07-31T07:22:40.345Z,3.63
2022-07-31T07:25:07.158Z,3.70
2022-07-31T07:27:33.647Z,7.20
2022-07-31T07:30:00.583Z,4.23
2022-07-31T07:32:27.302Z,4.13
2022-07-31T07:35:00.150Z,4.30
2022-07-31T07:37:27.605Z,4.57
2022-07-31T07:39:54.216Z,5.57
2022-07-31T07:42:20.824Z,4.90
2022-07-31T07:44:47.358Z,5.73
2022-07-31T07:47:14.159Z,6.40
2022-07-31T07:49:40.804Z,5.93
2022-07-31T07:52:07.389Z,4.60
2022-07-31T07:54:34.419Z,5.90
2022-07-31T07:57:00.877Z,5.53
2022-07-31T07:59:27.366Z,7.43
2022-07-31T08:01:54.018Z,6.00
2022-07-31T08:04:20.641Z,7.73
2022-07-31T08:06:47.424Z,6.60
2022-07-31T08:09:14.285Z,8.10
2022-07-31T08:11:40.795Z,7.83
2022-07-31T08:14:07.379Z,9.27
2022-07-31T08:16:34.273Z,9.33
2022-07-31T08:19:00.995Z,8.30
2022-07-31T08:21:27.478Z,9.63
2022-07-31T08:23:54.150Z,9.27
2022-07-31T08:26:20.706Z,11.40
2022-07-31T08:28:50.539Z,7.93
2022-07-31T08:31:19.140Z,15.07
2022-07-31T08:33:45.680Z,9.10
2022-07-31T08:36:12.612Z,10.70
2022-07-31T08:38:39.606Z,9.60
2022-07-31T08:41:06.121Z,9.07
2022-07-31T08:44:00.526Z,12.17
2022-07-31T08:46:20.083Z,9.57
2022-07-31T08:48:46.797Z,12.60
2022-07-31T08:51:13.825Z,10.80
2022-07-31T08:53:42.973Z,10.63
2022-07-31T08:56:09.845Z,10.37
2022-07-31T08:58:39.658Z,11.13
2022-07-31T09:01:08.128Z,11.53
2022-07-31T09:03:36.125Z,11.90
2022-07-31T09:06:05.360Z,12.17
2022-07-31T09:08:36.281Z,12.40
2022-07-31T09:11:06.105Z,10.87
2022-07-31T09:13:34.826Z,13.40
2022-07-31T09:16:01.977Z,10.63
2022-07-31T09:18:28.487Z,10.47
2022-07-31T09:21:05.887Z,12.80
2022-07-31T09:23:33.614Z,12.50
2022-07-31T09:26:05.776Z,11.53
2022-07-31T09:28:33.744Z,13.27
2022-07-31T09:31:00.506Z,14.20
2022-07-31T09:33:29.527Z,10.67
2022-07-31T09:35:57.225Z,11.83
2022-07-31T09:38:31.601Z,11.73
2022-07-31T09:41:26.781Z,12.57
2022-07-31T09:44:01.243Z,13.00
2022-07-31T09:46:39.155Z,11.50
2022-07-31T09:49:06.304Z,11.73
2022-07-31T09:51:44.473Z,11.50
2022-07-31T09:54:25.507Z,11.77
2022-07-31T09:56:52.758Z,12.53
2022-07-31T09:59:19.579Z,11.30
2022-07-31T10:01:48.874Z,13.37
2022-07-31T10:04:20.323Z,12.13
2022-07-31T10:06:48.867Z,13.63
2022-07-31T10:09:18.592Z,11.87
2022-07-31T10:11:47.386Z,12.67
2022-07-31T10:14:20.091Z,10.63
2022-07-31T10:16:47.143Z,9.97
2022-07-31T10:19:14.246Z,11.37
2022-07-31T10:21:44.316Z,10.00
2022-07-31T10:24:12.667Z,11.70
2022-07-31T10:26:59.623Z,9.40
2022-07-31T10:29:27.071Z,14.03
2022-07-31T10:31:59.198Z,10.13
2022-07-31T10:34:27.049Z,11.00
2022-07-31T10:36:55.100Z,10.03
2022-07-31T10:39:44.993Z,8.23
2022-07-31T10:42:31.965Z,9.97
2022-07-31T10:45:08.713Z,10.43
2022-07-31T10:47:35.747Z,10.20
2022-07-31T10:50:03.488Z,8.50
2022-07-31T10:52:31.641Z,9.47
2022-07-31T10:55:00.981Z,12.23
2022-07-31T10:57:30.064Z,10.17
2022-07-31T10:59:57.149Z,10.60
2022-07-31T11:02:34.180Z,8.57
2022-07-31T11:05:16.225Z,10.40
2022-07-31T11:07:44.991Z,8.70
2022-07-31T11:10:17.401Z,7.93
2022-07-31T11:12:45.120Z,8.90
2022-07-31T11:15:38.757Z,8.70
2022-07-31T11:18:24.159Z,9.73
2022-07-31T11:21:13.743Z,8.07
2022-07-31T11:23:55.677Z,8.13
2022-07-31T11:26:33.378Z,7.90
2022-07-31T11:29:59.264Z,7.60
2022-07-31T11:32:25.526Z,15.33
2022-07-31T11:34:56.972Z,8.60
2022-07-31T11:37:46.439Z,7.73
2022-07-31T11:40:17.369Z,6.33
2022-07-31T11:42:47.073Z,8.97
2022-07-31T11:45:19.491Z,8.63
2022-07-31T11:48:12.293Z,7.40
2022-07-31T11:50:42.391Z,8.83
2022-07-31T11:53:09.147Z,9.17
2022-07-31T11:55:52.122Z,7.87
2022-07-31T11:58:20.702Z,8.30
2022-07-31T12:00:52.766Z,12.07
2022-07-31T12:03:24.859Z,8.37
2022-07-31T12:05:52.614Z,7.90
2022-07-31T12:08:20.395Z,7.47
2022-07-31T12:10:47.845Z,8.83
2022-07-31T12:13:18.521Z,8.40
2022-07-31T12:15:55.121Z,11.07
2022-07-31T12:18:21.931Z,8.43
2022-07-31T12:20:57.109Z,9.03
2022-07-31T12:23:40.819Z,9.60
2022-07-31T12:26:08.725Z,9.93
2022-07-31T12:28:35.404Z,9.67
2022-07-31T12:31:01.954Z,7.43
2022-07-31T12:33:28.796Z,7.43
2022-07-31T12:35:57.223Z,8.77
2022-07-31T12:38:45.115Z,7.93
2022-07-31T12:41:12.406Z,7.83
2022-07-31T12:43:39.053Z,7.23
2022-07-31T12:46:17.138Z,7.90
2022-07-31T12:48:46.147Z,7.77
2022-07-31T12:51:13.218Z,7.90
2022-07-31T12:53:39.814Z,9.30
2022-07-31T12:56:11.352Z,11.60
2022-07-31T12:58:37.863Z,9.93
2022-07-31T13:01:08.342Z,10.87
2022-07-31T13:03:45.782Z,9.27
2022-07-31T13:06:14.263Z,8.53
2022-07-31T13:08:43.971Z,13.33
2022-07-31T13:11:10.846Z,7.73
2022-07-31T13:13:37.568Z,6.20
2022-07-31T13:16:05.462Z,9.00
2022-07-31T13:18:32.912Z,8.13
2022-07-31T13:21:00.885Z,8.33
2022-07-31T13:23:27.973Z,11.63
2022-07-31T13:25:54.891Z,7.33
2022-07-31T13:28:21.554Z,8.70
2022-07-31T13:30:50.938Z,7.07
2022-07-31T13:33:20.009Z,6.23
2022-07-31T13:35:46.674Z,7.87
2022-07-31T13:38:15.331Z,8.07
2022-07-31T13:41:00.923Z,8.97
2022-07-31T13:43:27.488Z,7.53
2022-07-31T13:45:54.109Z,10.17
2022-07-31T13:48:20.979Z,8.93
2022-07-31T13:50:47.577Z,6.77
2022-07-31T13:53:15.594Z,6.53
2022-07-31T13:55:42.411Z,9.63
2022-07-31T13:58:10.126Z,6.03
2022-07-31T14:00:36.730Z,8.90
2022-07-31T14:03:05.012Z,12.37
2022-07-31T14:05:37.331Z,8.40
2022-07-31T14:08:33.316Z,9.60
2022-07-31T14:10:53.843Z,6.97
2022-07-31T14:13:20.511Z,8.20
2022-07-31T14:15:47.195Z,7.70
2022-07-31T14:18:13.897Z,8.40
2022-07-31T14:20:40.593Z,8.73
2022-07-31T14:23:10.272Z,9.07
2022-07-31T14:25:38.420Z,5.23
2022-07-31T14:28:06.390Z,8.47
2022-07-31T14:30:33.911Z,9.87
2022-07-31T14:33:01.730Z,7.70
2022-07-31T14:35:28.385Z,9.47
2022-07-31T14:37:54.989Z,8.83
2022-07-31T14:40:22.354Z,7.50
2022-07-31T14:42:48.996Z,5.47
2022-07-31T14:45:15.641Z,7.67
2022-07-31T14:47:42.405Z,3.93
2022-07-31T14:50:12.918Z,5.67
2022-07-31T14:52:41.332Z,2.80
2022-07-31T14:55:09.071Z,4.33
2022-07-31T14:57:35.722Z,5.70
2022-07-31T15:00:03.362Z,4.73
2022-07-31T15:02:30.055Z,4.73
2022-07-31T15:04:56.968Z,5.30
2022-07-31T15:07:45.775Z,4.20
2022-07-31T15:10:11.419Z,4.97
2022-07-31T15:12:38.499Z,4.67
2022-07-31T15:15:06.336Z,4.07
2022-07-31T15:17:33.038Z,5.77
2022-07-31T15:19:59.554Z,6.13
2022-07-31T15:22:26.147Z,6.37
2022-07-31T15:24:52.983Z,7.20
2022-07-31T15:27:21.689Z,5.47
2022-07-31T15:30:05.516Z,5.80
2022-07-31T15:32:35.780Z,7.40
2022-07-31T15:35:03.309Z,7.30
2022-07-31T15:37:30.317Z,5.77
2022-07-31T15:40:02.291Z,8.80
2022-07-31T15:42:31.880Z,5.00
2022-07-31T15:44:58.724Z,4.77
2022-07-31T15:47:25.285Z,7.37
2022-07-31T15:49:51.751Z,4.13
2022-07-31T15:52:19.433Z,6.10
2022-07-31T15:54:46.676Z,5.47
2022-07-31T15:57:13.650Z,6.43
2022-07-31T15:59:41.491Z,3.93
2022-07-31T16:02:08.070Z,5.10
2022-07-31T16:04:36.621Z,3.30
2022-07-31T16:08:29.022Z,3.93
2022-07-31T16:10:14.769Z,4.73
2022-07-31T16:12:44.990Z,5.47
2022-07-31T16:15:12.494Z,4.13
2022-07-31T16:17:39.691Z,4.90
2022-07-31T16:20:25.535Z,7.20
2022-07-31T16:22:55.870Z,4.30
2022-07-31T16:25:23.541Z,7.83
2022-07-31T16:27:50.171Z,7.70
2022-07-31T16:30:16.731Z,8.30
2022-07-31T16:32:43.733Z,14.13
2022-07-31T16:35:11.080Z,10.60
2022-07-31T16:37:50.361Z,10.10
2022-07-31T16:40:28.682Z,7.93
2022-07-31T16:42:56.424Z,15.07
2022-07-31T16:45:23.224Z,13.37
2022-07-31T16:47:51.431Z,10.87
2022-07-31T16:50:18.378Z,10.90
2022-07-31T16:52:45.476Z,12.77
2022-07-31T16:55:12.179Z,11.23
2022-07-31T16:57:38.723Z,15.47
2022-07-31T17:00:05.758Z,9.03
2022-07-31T17:02:32.420Z,9.67
2022-07-31T17:04:58.927Z,15.70
2022-07-31T17:07:25.465Z,10.77
2022-07-31T17:09:52.073Z,10.73
2022-07-31T17:12:20.292Z,14.70
2022-07-31T17:14:48.568Z,11.70
2022-07-31T17:17:15.781Z,13.57
2022-07-31T17:19:46.656Z,12.83
2022-07-31T17:22:17.588Z,10.97
2022-07-31T17:24:50.701Z,13.20
2022-07-31T17:27:18.684Z,16.37
2022-07-31T17:29:45.695Z,14.57
2022-07-31T17:32:12.556Z,13.63
2022-07-31T17:34:40.286Z,12.30
2022-07-31T17:37:07.638Z,12.00
2022-07-31T17:39:35.328Z,13.07
2022-07-31T17:42:03.530Z,14.03
2022-07-31T17:44:30.627Z,10.03
2022-07-31T17:46:57.859Z,14.73
2022-07-31T17:49:34.412Z,12.47
2022-07-31T17:52:01.127Z,16.37
2022-07-31T17:54:28.851Z,10.87
2022-07-31T17:56:55.598Z,16.00
2022-07-31T17:59:23.026Z,16.27
2022-07-31T18:01:51.417Z,13.23
2022-07-31T18:04:19.296Z,12.63
2022-07-31T18:06:45.838Z,12.90
2022-07-31T18:09:12.354Z,18.93
2022-07-31T18:11:38.912Z,15.63
2022-07-31T18:14:08.515Z,15.70
2022-07-31T18:16:38.317Z,17.93
2022-07-31T18:19:04.960Z,18.77
2022-07-31T18:21:31.758Z,15.70
2022-07-31T18:24:04.771Z,19.87
2022-07-31T18:26:31.992Z,15.37
2022-07-31T18:28:58.528Z,17.87
2022-07-31T18:31:34.091Z,17.37
2022-07-31T18:34:04.526Z,15.57
2022-07-31T18:36:32.646Z,11.40
2022-07-31T18:38:59.295Z,12.90
2022-07-31T18:41:26.160Z,13.07
2022-07-31T18:43:52.890Z,12.07
2022-07-31T18:46:20.198Z,12.53
2022-07-31T18:48:49.724Z,14.73
2022-07-31T18:51:19.981Z,17.10
2022-07-31T18:53:46.880Z,13.47
2022-07-31T18:56:13.391Z,12.23
2022-07-31T18:58:42.011Z,13.00
2022-07-31T19:01:08.849Z,13.17
2022-07-31T19:03:35.484Z,23.97
2022-07-31T19:06:03.394Z,11.67
2022-07-31T19:08:30.192Z,12.60
2022-07-31T19:10:57.057Z,16.57
2022-07-31T19:13:23.681Z,14.80
2022-07-31T19:15:52.932Z,19.57
2022-07-31T19:18:28.050Z,14.07
2022-07-31T19:21:00.195Z,18.80
2022-07-31T19:23:42.307Z,11.70
2022-07-31T19:26:09.033Z,19.27
2022-07-31T19:28:36.320Z,11.27
2022-07-31T19:31:03.439Z,14.07
2022-07-31T19:33:30.285Z,12.47
2022-07-31T19:36:01.784Z,11.97
2022-07-31T19:38:34.212Z,11.50
2022-07-31T19:41:00.790Z,12.80
2022-07-31T19:43:27.906Z,9.13
2022-07-31T19:46:00.496Z,11.80
2022-07-31T19:48:40.713Z,9.53
2022-07-31T19:51:07.786Z,12.43
2022-07-31T19:53:34.538Z,11.87
2022-07-31T19:56:05.864Z,14.47
2022-07-31T19:58:35.075Z,8.97
2022-07-31T20:01:05.290Z,13.10
2022-07-31T20:03:31.961Z,10.40
2022-07-31T20:05:58.893Z,10.33
2022-07-31T20:08:25.638Z,10.20
2022-07-31T20:10:52.457Z,10.37
2022-07-31T20:13:19.525Z,10.57
2022-07-31T20:15:51.714Z,9.40
2022-07-31T20:18:29.611Z,8.87
2022-07-31T20:21:00.912Z,8.83
2022-07-31T20:23:27.843Z,9.37
2022-07-31T20:25:54.702Z,8.50
2022-07-31T20:28:21.355Z,9.97
2022-07-31T20:30:48.304Z,8.87
2022-07-31T20:33:15.018Z,8.70
2022-07-31T20:35:48.573Z,5.97
2022-07-31T20:38:22.598Z,6.67
2022-07-31T20:40:53.776Z,13.33
2022-07-31T20:43:26.269Z,13.33
2022-07-31T20:45:54.435Z,9.30
2022-07-31T20:48:23.984Z,10.60
2022-07-31T20:50:51.171Z,9.80
2022-07-31T20:53:17.714Z,11.50
2022-07-31T20:55:49.816Z,10.87
2022-07-31T20:58:21.042Z,10.37
2022-07-31T21:00:49.276Z,9.03
2022-07-31T21:03:16.969Z,7.17
2022-07-31T21:05:44.551Z,8.97
2022-07-31T21:08:11.236Z,10.53
2022-07-31T21:10:38.466Z,10.87
2022-07-31T21:13:05.560Z,11.00
2022-07-31T21:15:42.785Z,13.80
2022-07-31T21:18:16.172Z,8.57
2022-07-31T21:20:52.177Z,7.27
2022-07-31T21:23:24.882Z,6.97
2022-07-31T21:25:56.044Z,16.13
2022-07-31T21:28:24.633Z,12.97
2022-07-31T21:30:53.836Z,8.67
2022-07-31T21:33:20.790Z,10.40
2022-07-31T21:35:47.700Z,12.90
2022-07-31T21:38:17.347Z,12.13
2022-07-31T21:40:45.515Z,7.93
2022-07-31T21:43:12.507Z,9.10
2022-07-31T21:45:55.252Z,7.57
2022-07-31T21:48:24.962Z,10.90
2022-07-31T21:50:52.478Z,8.33
2022-07-31T21:53:19.146Z,11.60
2022-07-31T21:55:46.005Z,12.53
2022-07-31T21:58:12.864Z,10.93
2022-07-31T22:00:39.531Z,11.27
2022-07-31T22:03:06.375Z,10.87
2022-07-31T22:05:52.662Z,8.03
2022-07-31T22:08:19.320Z,9.73
2022-07-31T22:10:45.915Z,14.57
2022-07-31T22:13:12.733Z,9.90
2022-07-31T22:15:55.496Z,10.43
2022-07-31T22:18:27.436Z,9.87
2022-07-31T22:20:54.495Z,8.13
2022-07-31T22:23:21.235Z,10.93
2022-07-31T22:25:51.287Z,8.23
2022-07-31T22:28:19.776Z,8.37
2022-07-31T22:30:46.831Z,13.73
2022-07-31T22:33:13.598Z,6.20
2022-07-31T22:35:40.849Z,10.93
2022-07-31T22:38:08.238Z,13.30
2022-07-31T22:40:34.987Z,8.40
2022-07-31T22:43:02.358Z,12.57
2022-07-31T22:45:29.572Z,12.13
2022-07-31T22:47:57.357Z,13.27
2022-07-31T22:50:24.081Z,10.03
2022-07-31T22:52:50.607Z,8.77
2022-07-31T22:55:17.248Z,9.30
2022-07-31T22:57:46.010Z,12.57
2022-07-31T23:00:14.057Z,9.37
2022-07-31T23:02:41.592Z,8.30
2022-07-31T23:05:08.963Z,7.97
2022-07-31T23:07:35.466Z,13.00
2022-07-31T23:10:03.300Z,10.87
2022-07-31T23:12:29.985Z,14.03
2022-07-31T23:14:56.447Z,7.63
2022-07-31T23:17:23.585Z,10.20
2022-07-31T23:19:53.965Z,13.27
2022-07-31T23:22:33.019Z,9.70
2022-07-31T23:25:05.769Z,14.17
2022-07-31T23:27:33.539Z,8.60
2022-07-31T23:30:00.548Z,11.90
2022-07-31T23:32:27.684Z,7.30
2022-07-31T23:34:54.629Z,9.53
2022-07-31T23:37:21.179Z,14.03
2022-07-31T23:39:47.743Z,9.20
2022-07-31T23:42:32.831Z,12.33
2022-07-31T23:44:59.393Z,10.60
2022-07-31T23:47:27.984Z,13.03
2022-07-31T23:50:11.957Z,7.80
2022-07-31T23:52:38.466Z,15.63
2022-07-31T23:55:05.221Z,11.93
2022-07-31T23:57:34.705Z,10.77
